createdAt,value
2023-05-23T00:01:10.187Z,98400.09
2023-05-23T00:03:37.437Z,98397.31
2023-05-23T00:06:06.997Z,98400.66
2023-05-23T00:08:33.718Z,98398.56
2023-05-23T00:11:00.347Z,98400.19
2023-05-23T00:13:26.988Z,98396.13
2023-05-23T00:15:53.508Z,98391.75
2023-05-23T00:18:20.283Z,98402.94
2023-05-23T00:20:47.043Z,98396.31
2023-05-23T00:23:19.356Z,98397.91
2023-05-23T00:25:52.725Z,98394.22
2023-05-23T00:28:19.814Z,98390.94
2023-05-23T00:30:46.370Z,98396.88
2023-05-23T00:33:14.412Z,98394.47
2023-05-23T00:35:41.951Z,98392.75
2023-05-23T00:38:11.373Z,98392.84
2023-05-23T00:40:37.895Z,98392.00
2023-05-23T00:43:04.399Z,98397.03
2023-05-23T00:45:31.155Z,98396.91
2023-05-23T00:48:00.169Z,98401.34
2023-05-23T00:50:29.843Z,98392.53
2023-05-23T00:52:59.014Z,98405.56
2023-05-23T00:55:25.815Z,98403.84
2023-05-23T00:57:57.052Z,98407.84
2023-05-23T01:00:25.295Z,98402.81
2023-05-23T01:02:53.414Z,98404.19
2023-05-23T01:05:22.727Z,98406.28
2023-05-23T01:07:51.201Z,98410.97
2023-05-23T01:10:22.135Z,98408.19
2023-05-23T01:12:57.989Z,98411.00
2023-05-23T01:15:32.897Z,98409.88
2023-05-23T01:18:04.382Z,98406.72
2023-05-23T01:20:45.185Z,98417.59
2023-05-23T01:23:41.591Z,98419.63
2023-05-23T01:26:27.594Z,98418.81
2023-05-23T01:29:11.808Z,98416.03
2023-05-23T01:31:45.135Z,98422.16
2023-05-23T01:34:13.877Z,98423.34
2023-05-23T01:36:42.933Z,98424.31
2023-05-23T01:39:10.512Z,98417.97
2023-05-23T01:41:37.366Z,98422.13
2023-05-23T01:44:05.697Z,98428.97
2023-05-23T01:46:34.229Z,98426.63
2023-05-23T01:49:02.723Z,98421.44
2023-05-23T01:51:30.548Z,98425.69
2023-05-23T01:53:57.796Z,98427.44
2023-05-23T01:56:24.984Z,98423.84
2023-05-23T01:58:51.783Z,98425.00
2023-05-23T02:01:18.793Z,98431.69
2023-05-23T02:03:45.541Z,98430.09
2023-05-23T02:06:12.160Z,98429.53
2023-05-23T02:08:38.967Z,98438.84
2023-05-23T02:11:05.596Z,98440.91
2023-05-23T02:13:32.058Z,98443.09
2023-05-23T02:15:58.576Z,98448.44
2023-05-23T02:18:26.281Z,98451.47
2023-05-23T02:20:52.812Z,98458.28
2023-05-23T02:23:19.303Z,98451.66
2023-05-23T02:25:45.838Z,98451.38
2023-05-23T02:28:12.937Z,98458.22
2023-05-23T02:30:39.848Z,98450.06
2023-05-23T02:33:07.115Z,98463.44
2023-05-23T02:35:34.320Z,98459.00
2023-05-23T02:38:00.962Z,98460.84
2023-05-23T02:40:27.447Z,98467.06
2023-05-23T02:42:57.287Z,98465.28
2023-05-23T02:45:24.266Z,98469.28
2023-05-23T02:47:51.259Z,98471.78
2023-05-23T02:50:17.791Z,98472.88
2023-05-23T02:52:44.627Z,98473.53
2023-05-23T02:55:11.310Z,98473.09
2023-05-23T02:57:42.448Z,98464.91
2023-05-23T03:00:10.262Z,98467.94
2023-05-23T03:02:36.912Z,98466.91
2023-05-23T03:05:04.054Z,98467.44
2023-05-23T03:07:30.697Z,98470.63
2023-05-23T03:09:57.336Z,98469.72
2023-05-23T03:12:24.001Z,98468.31
2023-05-23T03:14:50.768Z,98471.22
2023-05-23T03:17:17.420Z,98478.94
2023-05-23T03:19:44.053Z,98475.69
2023-05-23T03:22:10.667Z,98473.69
2023-05-23T03:24:37.285Z,98483.78
2023-05-23T03:27:04.414Z,98482.59
2023-05-23T03:29:31.077Z,98485.91
2023-05-23T03:31:57.802Z,98483.25
2023-05-23T03:34:26.553Z,98486.09
2023-05-23T03:36:53.402Z,98487.09
2023-05-23T03:39:20.253Z,98493.84
2023-05-23T03:41:46.957Z,98486.09
2023-05-23T03:44:14.790Z,98487.53
2023-05-23T03:46:42.268Z,98490.56
2023-05-23T03:49:09.263Z,98485.53
2023-05-23T03:51:36.084Z,98482.44
2023-05-23T03:54:03.299Z,98492.16
2023-05-23T03:56:30.013Z,98489.56
2023-05-23T03:58:56.690Z,98494.28
2023-05-23T04:01:23.334Z,98498.44
2023-05-23T04:03:50.358Z,98488.59
2023-05-23T04:06:18.277Z,98490.25
2023-05-23T04:08:46.150Z,98492.59
2023-05-23T04:11:13.412Z,98501.47
2023-05-23T04:13:42.801Z,98493.63
2023-05-23T04:16:10.802Z,98499.63
2023-05-23T04:18:39.424Z,98501.47
2023-05-23T04:21:07.574Z,98506.41
2023-05-23T04:23:38.504Z,98509.88
2023-05-23T04:26:06.612Z,98507.50
2023-05-23T04:28:35.682Z,98510.03
2023-05-23T04:31:03.231Z,98506.94
2023-05-23T04:33:34.180Z,98511.94
2023-05-23T04:36:03.056Z,98513.25
2023-05-23T04:38:29.737Z,98513.78
2023-05-23T04:40:58.003Z,98513.84
2023-05-23T04:43:54.152Z,98517.47
2023-05-23T04:46:27.646Z,98521.22
2023-05-23T04:49:11.150Z,98531.63
2023-05-23T04:51:38.387Z,98531.88
2023-05-23T04:54:31.277Z,98537.81
2023-05-23T04:57:00.198Z,98538.03
2023-05-23T04:59:28.351Z,98541.69
2023-05-23T05:01:54.969Z,98543.03
2023-05-23T05:04:23.164Z,98541.44
2023-05-23T05:06:50.490Z,98552.06
2023-05-23T05:09:18.040Z,98546.75
2023-05-23T05:11:44.639Z,98547.88
2023-05-23T05:14:11.213Z,98555.53
2023-05-23T05:16:37.972Z,98558.22
2023-05-23T05:19:04.633Z,98556.81
2023-05-23T05:21:31.664Z,98562.28
2023-05-23T05:23:59.896Z,98561.41
2023-05-23T05:26:26.920Z,98572.84
2023-05-23T05:28:54.105Z,98567.09
2023-05-23T05:31:22.052Z,98570.44
2023-05-23T05:33:49.900Z,98564.00
2023-05-23T05:36:16.597Z,98575.31
2023-05-23T05:38:44.802Z,98575.88
2023-05-23T05:41:11.998Z,98567.34
2023-05-23T05:43:42.572Z,98571.97
2023-05-23T05:46:09.148Z,98565.97
2023-05-23T05:48:35.683Z,98569.34
2023-05-23T05:51:06.498Z,98579.28
2023-05-23T05:53:34.251Z,98584.84
2023-05-23T05:56:03.092Z,98585.78
2023-05-23T05:58:31.359Z,98592.47
2023-05-23T06:01:01.291Z,98587.63
2023-05-23T06:03:28.056Z,98597.47
2023-05-23T06:05:55.662Z,98589.25
2023-05-23T06:08:22.332Z,98590.41
2023-05-23T06:10:49.311Z,98582.84
2023-05-23T06:13:16.735Z,98603.47
2023-05-23T06:15:46.820Z,98597.53
2023-05-23T06:18:14.027Z,98602.88
2023-05-23T06:20:41.106Z,98597.22
2023-05-23T06:23:12.716Z,98597.16
2023-05-23T06:25:39.972Z,98602.91
2023-05-23T06:28:06.552Z,98606.31
2023-05-23T06:30:35.461Z,98606.38
2023-05-23T06:33:02.249Z,98616.72
2023-05-23T06:35:28.803Z,98619.94
2023-05-23T06:37:55.336Z,98624.00
2023-05-23T06:40:21.880Z,98624.31
2023-05-23T06:42:50.092Z,98636.97
2023-05-23T06:45:42.558Z,98631.34
2023-05-23T06:48:13.539Z,98634.91
2023-05-23T06:50:41.053Z,98637.41
2023-05-23T06:53:08.851Z,98642.59
2023-05-23T06:55:35.422Z,98650.53
2023-05-23T06:58:04.291Z,98639.50
2023-05-23T07:00:31.929Z,98655.69
2023-05-23T07:03:09.090Z,98653.13
2023-05-23T07:05:39.309Z,98662.09
2023-05-23T07:08:11.445Z,98658.19
2023-05-23T07:10:41.690Z,98662.34
2023-05-23T07:13:21.740Z,98661.34
2023-05-23T07:15:48.342Z,98670.88
2023-05-23T07:18:14.957Z,98674.03
2023-05-23T07:20:42.120Z,98669.28
2023-05-23T07:23:16.733Z,98667.78
2023-05-23T07:26:00.633Z,98677.88
2023-05-23T07:28:34.403Z,98681.03
2023-05-23T07:31:01.421Z,98680.66
2023-05-23T07:33:29.044Z,98679.41
2023-05-23T07:36:00.815Z,98680.66
2023-05-23T07:38:27.338Z,98671.13
2023-05-23T07:41:03.178Z,98687.47
2023-05-23T07:43:37.202Z,98685.88
2023-05-23T07:46:03.884Z,98681.66
2023-05-23T07:48:30.541Z,98681.53
2023-05-23T07:50:57.615Z,98685.25
2023-05-23T07:53:24.402Z,98681.28
2023-05-23T07:55:52.195Z,98684.44
2023-05-23T07:58:20.175Z,98678.88
2023-05-23T08:00:47.876Z,98682.34
2023-05-23T08:03:32.455Z,98690.59
2023-05-23T08:06:07.501Z,98691.75
2023-05-23T08:08:34.406Z,98687.44
2023-05-23T08:11:01.024Z,98688.84
2023-05-23T08:13:34.778Z,98689.38
2023-05-23T08:16:19.929Z,98693.31
2023-05-23T08:18:47.031Z,98689.66
2023-05-23T08:21:13.584Z,98687.34
2023-05-23T08:23:45.853Z,98693.22
2023-05-23T08:26:15.911Z,98696.03
2023-05-23T08:28:43.215Z,98688.91
2023-05-23T08:31:09.714Z,98694.22
2023-05-23T08:33:36.299Z,98692.63
2023-05-23T08:36:02.845Z,98678.97
2023-05-23T08:38:29.584Z,98686.53
2023-05-23T08:41:18.479Z,98687.59
2023-05-23T08:43:46.297Z,98688.03
2023-05-23T08:46:18.831Z,98694.69
2023-05-23T08:48:52.164Z,98691.78
2023-05-23T08:51:21.649Z,98697.09
2023-05-23T08:53:52.898Z,98695.03
2023-05-23T08:56:23.588Z,98695.25
2023-05-23T08:58:53.122Z,98698.53
2023-05-23T09:01:23.491Z,98698.63
2023-05-23T09:03:53.352Z,98694.34
2023-05-23T09:06:35.438Z,98703.72
2023-05-23T09:09:02.091Z,98718.81
2023-05-23T09:11:29.089Z,98707.81
2023-05-23T09:13:57.796Z,98704.78
2023-05-23T09:16:24.480Z,98704.91
2023-05-23T09:18:55.790Z,98707.81
2023-05-23T09:21:24.621Z,98709.78
2023-05-23T09:24:00.675Z,98706.50
2023-05-23T09:26:28.329Z,98710.56
2023-05-23T09:28:59.382Z,98711.97
2023-05-23T09:31:32.495Z,98714.84
2023-05-23T09:34:01.916Z,98705.56
2023-05-23T09:36:30.498Z,98713.94
2023-05-23T09:38:57.205Z,98715.06
2023-05-23T09:41:25.133Z,98714.25
2023-05-23T09:43:54.086Z,98718.09
2023-05-23T09:46:21.629Z,98712.06
2023-05-23T09:48:51.726Z,98718.66
2023-05-23T09:51:23.260Z,98723.66
2023-05-23T09:53:51.104Z,98717.50
2023-05-23T09:56:18.145Z,98721.91
2023-05-23T09:58:49.386Z,98722.97
2023-05-23T10:01:16.364Z,98722.03
2023-05-23T10:03:50.408Z,98726.09
2023-05-23T10:06:24.151Z,98731.34
2023-05-23T10:09:05.078Z,98729.22
2023-05-23T10:11:34.755Z,98737.22
2023-05-23T10:14:04.970Z,98723.28
2023-05-23T10:16:48.240Z,98730.59
2023-05-23T10:19:20.689Z,98730.16
2023-05-23T10:21:55.185Z,98729.81
2023-05-23T10:24:22.462Z,98733.31
2023-05-23T10:26:49.193Z,98745.59
2023-05-23T10:29:15.813Z,98743.66
2023-05-23T10:31:43.518Z,98735.63
2023-05-23T10:34:28.778Z,98736.78
2023-05-23T10:37:03.037Z,98737.13
2023-05-23T10:40:00.326Z,98737.25
2023-05-23T10:42:49.890Z,98744.91
2023-05-23T10:45:24.285Z,98740.34
2023-05-23T10:47:53.317Z,98741.75
2023-05-23T10:50:34.122Z,98751.44
2023-05-23T10:53:05.703Z,98744.41
2023-05-23T10:55:34.711Z,98747.06
2023-05-23T10:58:16.106Z,98742.13
2023-05-23T11:01:21.380Z,98742.59
2023-05-23T11:03:49.308Z,98736.88
2023-05-23T11:06:35.484Z,98742.09
2023-05-23T11:09:07.028Z,98736.91
2023-05-23T11:11:53.120Z,98735.38
2023-05-23T11:14:40.737Z,98736.53
2023-05-23T11:17:13.276Z,98737.94
2023-05-23T11:19:40.407Z,98743.75
2023-05-23T11:22:10.049Z,98741.66
2023-05-23T11:24:55.932Z,98748.53
2023-05-23T11:27:34.544Z,98750.25
2023-05-23T11:30:13.300Z,98750.25
2023-05-23T11:32:40.152Z,98756.19
2023-05-23T11:35:11.005Z,98748.59
2023-05-23T11:37:40.862Z,98750.16
2023-05-23T11:40:27.130Z,98743.38
2023-05-23T11:42:54.399Z,98741.28
2023-05-23T11:45:22.662Z,98737.56
2023-05-23T11:47:52.083Z,98740.34
2023-05-23T11:50:20.444Z,98747.75
2023-05-23T11:52:51.511Z,98740.16
2023-05-23T11:55:19.692Z,98745.72
2023-05-23T11:57:46.231Z,98735.34
2023-05-23T12:00:13.997Z,98734.06
2023-05-23T12:02:44.734Z,98741.03
2023-05-23T12:05:13.870Z,98740.56
2023-05-23T12:07:42.010Z,98736.81
2023-05-23T12:10:12.111Z,98742.88
2023-05-23T12:12:38.846Z,98744.09
2023-05-23T12:15:05.791Z,98743.50
2023-05-23T12:17:33.515Z,98744.94
2023-05-23T12:20:00.473Z,98742.34
2023-05-23T12:22:28.230Z,98738.59
2023-05-23T12:24:56.258Z,98738.19
2023-05-23T12:27:30.542Z,98736.94
2023-05-23T12:30:09.547Z,98739.84
2023-05-23T12:32:43.504Z,98735.34
2023-05-23T12:35:13.155Z,98736.22
2023-05-23T12:37:42.879Z,98734.69
2023-05-23T12:40:17.806Z,98736.28
2023-05-23T12:42:53.793Z,98739.38
2023-05-23T12:45:30.762Z,98738.88
2023-05-23T12:47:57.490Z,98735.50
2023-05-23T12:50:24.168Z,98741.25
2023-05-23T12:52:50.784Z,98733.38
2023-05-23T12:55:17.551Z,98737.19
2023-05-23T12:57:44.364Z,98738.97
2023-05-23T13:00:11.769Z,98730.03
2023-05-23T13:02:39.380Z,98728.75
2023-05-23T13:05:06.336Z,98731.88
2023-05-23T13:07:32.976Z,98731.75
2023-05-23T13:09:59.720Z,98730.72
2023-05-23T13:12:26.301Z,98737.53
2023-05-23T13:14:52.976Z,98734.31
2023-05-23T13:17:19.529Z,98738.44
2023-05-23T13:19:46.397Z,98735.75
2023-05-23T13:22:13.247Z,98745.41
2023-05-23T13:24:40.739Z,98741.84
2023-05-23T13:27:07.640Z,98745.50
2023-05-23T13:29:34.517Z,98745.69
2023-05-23T13:32:01.391Z,98747.56
2023-05-23T13:34:28.696Z,98745.84
2023-05-23T13:36:55.674Z,98740.50
2023-05-23T13:39:22.821Z,98748.41
2023-05-23T13:41:51.478Z,98740.25
2023-05-23T13:44:18.106Z,98742.84
2023-05-23T13:46:44.756Z,98745.63
2023-05-23T13:49:11.347Z,98742.16
2023-05-23T13:51:38.160Z,98744.91
2023-05-23T13:54:06.038Z,98735.97
2023-05-23T13:56:33.598Z,98742.38
2023-05-23T13:59:00.493Z,98736.78
2023-05-23T14:01:27.276Z,98731.13
2023-05-23T14:03:54.372Z,98732.03
2023-05-23T14:06:21.324Z,98741.31
2023-05-23T14:08:47.857Z,98733.09
2023-05-23T14:11:14.454Z,98739.13
2023-05-23T14:13:40.974Z,98741.78
2023-05-23T14:16:07.549Z,98740.84
2023-05-23T14:18:34.120Z,98750.13
2023-05-23T14:21:00.641Z,98747.13
2023-05-23T14:23:27.134Z,98744.25
2023-05-23T14:25:53.666Z,98743.44
2023-05-23T14:28:20.265Z,98751.19
2023-05-23T14:30:46.787Z,98748.88
2023-05-23T14:33:13.360Z,98748.16
2023-05-23T14:35:40.131Z,98744.75
2023-05-23T14:38:06.913Z,98751.28
2023-05-23T14:40:33.430Z,98749.03
2023-05-23T14:42:59.979Z,98757.69
2023-05-23T14:45:26.607Z,98757.47
2023-05-23T14:47:53.191Z,98761.16
2023-05-23T14:50:19.747Z,98752.34
2023-05-23T14:52:46.316Z,98755.34
2023-05-23T14:55:12.905Z,98751.88
2023-05-23T14:57:39.541Z,98748.75
2023-05-23T15:00:06.708Z,98749.94
2023-05-23T15:02:33.389Z,98755.59
2023-05-23T15:05:00.048Z,98751.16
2023-05-23T15:07:27.058Z,98751.75
2023-05-23T15:09:53.677Z,98751.19
2023-05-23T15:12:20.909Z,98747.69
2023-05-23T15:14:47.579Z,98752.97
2023-05-23T15:17:19.814Z,98744.03
2023-05-23T15:19:46.502Z,98745.50
2023-05-23T15:22:29.851Z,98746.06
2023-05-23T15:25:00.651Z,98746.19
2023-05-23T15:27:27.191Z,98745.50
2023-05-23T15:29:53.709Z,98752.81
2023-05-23T15:32:20.439Z,98749.13
2023-05-23T15:34:47.117Z,98741.25
2023-05-23T15:37:13.625Z,98742.44
2023-05-23T15:39:40.295Z,98743.03
2023-05-23T15:42:06.974Z,98739.09
2023-05-23T15:44:33.543Z,98738.50
2023-05-23T15:47:00.070Z,98741.81
2023-05-23T15:49:27.336Z,98740.41
2023-05-23T15:51:55.173Z,98736.81
2023-05-23T15:54:22.304Z,98735.69
2023-05-23T15:56:48.936Z,98748.75
2023-05-23T15:59:15.471Z,98736.47
2023-05-23T16:01:42.118Z,98741.09
2023-05-23T16:04:08.784Z,98730.53
2023-05-23T16:06:36.560Z,98722.03
2023-05-23T16:09:03.558Z,98725.72
2023-05-23T16:11:30.275Z,98724.13
2023-05-23T16:13:56.810Z,98727.34
2023-05-23T16:16:23.401Z,98727.28
2023-05-23T16:18:50.024Z,98729.72
2023-05-23T16:21:20.422Z,98718.88
2023-05-23T16:23:48.466Z,98722.91
2023-05-23T16:26:16.174Z,98724.03
2023-05-23T16:28:43.604Z,98720.00
2023-05-23T16:31:14.695Z,98724.88
2023-05-23T16:33:41.370Z,98723.31
2023-05-23T16:36:08.169Z,98728.84
2023-05-23T16:38:34.691Z,98721.09
2023-05-23T16:41:01.535Z,98722.69
2023-05-23T16:43:28.211Z,98724.69
2023-05-23T16:45:54.726Z,98723.75
2023-05-23T16:48:22.117Z,98726.97
2023-05-23T16:50:48.689Z,98725.03
2023-05-23T16:53:15.221Z,98726.06
2023-05-23T16:55:41.891Z,98729.53
2023-05-23T16:58:08.805Z,98732.78
2023-05-23T17:00:36.333Z,98733.03
2023-05-23T17:03:02.933Z,98733.03
2023-05-23T17:05:29.472Z,98736.28
2023-05-23T17:07:56.150Z,98738.47
2023-05-23T17:10:22.783Z,98737.19
2023-05-23T17:12:49.354Z,98738.50
2023-05-23T17:15:15.906Z,98742.69
2023-05-23T17:17:42.589Z,98734.06
2023-05-23T17:20:10.008Z,98732.00
2023-05-23T17:22:40.518Z,98737.78
2023-05-23T17:25:07.469Z,98741.13
2023-05-23T17:27:33.997Z,98745.63
2023-05-23T17:30:04.354Z,98742.41
2023-05-23T17:32:30.912Z,98745.88
2023-05-23T17:34:57.438Z,98748.63
2023-05-23T17:37:25.806Z,98749.59
2023-05-23T17:39:53.670Z,98746.44
2023-05-23T17:42:21.852Z,98753.94
2023-05-23T17:44:48.352Z,98754.09
2023-05-23T17:47:14.899Z,98752.75
2023-05-23T17:49:41.804Z,98758.66
2023-05-23T17:52:09.998Z,98755.66
2023-05-23T17:54:37.700Z,98764.53
2023-05-23T17:57:05.154Z,98764.09
2023-05-23T17:59:32.825Z,98764.47
2023-05-23T18:02:00.158Z,98767.56
2023-05-23T18:04:26.746Z,98771.88
2023-05-23T18:06:53.331Z,98771.13
2023-05-23T18:09:19.918Z,98777.25
2023-05-23T18:11:46.506Z,98772.22
2023-05-23T18:14:13.020Z,98774.91
2023-05-23T18:16:39.612Z,98772.09
2023-05-23T18:19:06.434Z,98777.03
2023-05-23T18:21:34.661Z,98773.94
2023-05-23T18:24:02.709Z,98772.28
2023-05-23T18:26:29.382Z,98778.97
2023-05-23T18:28:56.045Z,98779.00
2023-05-23T18:31:22.585Z,98779.69
2023-05-23T18:33:49.141Z,98787.22
2023-05-23T18:36:15.752Z,98782.78
2023-05-23T18:38:42.374Z,98790.91
2023-05-23T18:41:12.565Z,98795.03
2023-05-23T18:43:41.227Z,98806.34
2023-05-23T18:46:07.829Z,98809.41
2023-05-23T18:48:35.910Z,98801.22
2023-05-23T18:51:02.767Z,98807.16
2023-05-23T18:53:29.342Z,98813.31
2023-05-23T18:55:55.948Z,98810.84
2023-05-23T18:58:22.479Z,98818.44
2023-05-23T19:00:49.043Z,98818.44
2023-05-23T19:03:16.772Z,98835.16
2023-05-23T19:05:43.503Z,98831.50
2023-05-23T19:08:10.046Z,98837.03
2023-05-23T19:10:36.692Z,98837.63
2023-05-23T19:13:03.826Z,98841.31
2023-05-23T19:15:30.398Z,98843.16
2023-05-23T19:17:57.000Z,98847.44
2023-05-23T19:20:23.553Z,98852.31
2023-05-23T19:22:52.346Z,98848.81
2023-05-23T19:25:20.347Z,98855.53
2023-05-23T19:27:46.875Z,98858.03
2023-05-23T19:30:13.489Z,98862.28
2023-05-23T19:32:40.166Z,98861.69
2023-05-23T19:35:08.195Z,98870.59
2023-05-23T19:37:34.988Z,98871.94
2023-05-23T19:40:01.841Z,98868.44
2023-05-23T19:42:28.480Z,98882.56
2023-05-23T19:44:55.019Z,98875.06
2023-05-23T19:47:21.803Z,98882.56
2023-05-23T19:49:48.431Z,98887.69
2023-05-23T19:52:14.933Z,98881.38
2023-05-23T19:54:41.845Z,98884.09
2023-05-23T19:57:08.706Z,98890.50
2023-05-23T19:59:35.356Z,98887.19
2023-05-23T20:02:01.995Z,98887.69
2023-05-23T20:04:28.597Z,98885.41
2023-05-23T20:06:56.032Z,98889.41
2023-05-23T20:09:22.963Z,98897.75
2023-05-23T20:11:49.473Z,98892.81
2023-05-23T20:14:16.063Z,98898.13
2023-05-23T20:16:42.667Z,98899.47
2023-05-23T20:19:09.966Z,98893.16
2023-05-23T20:21:36.709Z,98893.75
2023-05-23T20:24:03.363Z,98891.19
2023-05-23T20:26:29.906Z,98886.00
2023-05-23T20:28:56.572Z,98894.06
2023-05-23T20:31:23.150Z,98896.41
2023-05-23T20:33:49.849Z,98896.38
2023-05-23T20:36:19.578Z,98899.06
2023-05-23T20:38:46.718Z,98890.69
2023-05-23T20:41:14.209Z,98902.13
2023-05-23T20:43:40.885Z,98894.16
2023-05-23T20:46:09.848Z,98886.59
2023-05-23T20:48:36.412Z,98893.59
2023-05-23T20:51:05.631Z,98900.63
2023-05-23T20:53:32.221Z,98896.59
2023-05-23T20:55:58.920Z,98899.81
2023-05-23T20:58:25.829Z,98904.31
2023-05-23T21:00:52.898Z,98902.78
2023-05-23T21:03:19.798Z,98903.56
2023-05-23T21:05:46.332Z,98901.72
2023-05-23T21:08:12.850Z,98905.84
2023-05-23T21:10:39.547Z,98910.22
2023-05-23T21:13:06.750Z,98917.59
2023-05-23T21:15:33.928Z,98913.69
2023-05-23T21:18:00.499Z,98902.47
2023-05-23T21:20:28.904Z,98914.69
2023-05-23T21:22:55.644Z,98914.38
2023-05-23T21:25:22.154Z,98920.41
2023-05-23T21:27:48.726Z,98919.66
2023-05-23T21:30:15.523Z,98916.50
2023-05-23T21:32:43.494Z,98914.38
2023-05-23T21:35:10.370Z,98918.72
2023-05-23T21:37:36.869Z,98929.50
2023-05-23T21:40:03.689Z,98933.00
2023-05-23T21:42:31.010Z,98937.34
2023-05-23T21:44:57.573Z,98934.25
2023-05-23T21:47:25.129Z,98933.84
2023-05-23T21:49:51.763Z,98952.75
2023-05-23T21:52:18.401Z,98954.13
2023-05-23T21:54:46.814Z,98948.38
2023-05-23T21:57:13.374Z,98943.03
2023-05-23T21:59:39.885Z,98937.69
2023-05-23T22:02:06.464Z,98936.41
2023-05-23T22:04:33.591Z,98931.94
2023-05-23T22:07:00.467Z,98935.84
2023-05-23T22:09:26.957Z,98934.97
2023-05-23T22:11:53.631Z,98938.78
2023-05-23T22:14:20.122Z,98935.31
2023-05-23T22:16:46.869Z,98941.69
2023-05-23T22:19:17.849Z,98947.69
2023-05-23T22:21:44.436Z,98948.50
2023-05-23T22:24:11.080Z,98939.59
2023-05-23T22:26:39.134Z,98952.41
2023-05-23T22:29:06.903Z,98943.22
2023-05-23T22:31:33.527Z,98950.34
2023-05-23T22:34:00.076Z,98941.66
2023-05-23T22:36:26.780Z,98940.72
2023-05-23T22:38:53.262Z,98938.66
2023-05-23T22:41:19.890Z,98943.28
2023-05-23T22:43:46.778Z,98939.44
2023-05-23T22:46:13.476Z,98940.25
2023-05-23T22:48:40.015Z,98946.34
2023-05-23T22:51:07.887Z,98948.34
2023-05-23T22:53:34.513Z,98945.81
2023-05-23T22:56:00.985Z,98942.50
2023-05-23T22:58:27.673Z,98950.59
2023-05-23T23:00:54.164Z,98955.13
2023-05-23T23:03:20.845Z,98955.59
2023-05-23T23:05:47.576Z,98953.66
2023-05-23T23:08:16.004Z,98954.81
2023-05-23T23:10:43.903Z,98969.59
2023-05-23T23:13:13.494Z,98968.31
2023-05-23T23:15:40.506Z,98969.28
2023-05-23T23:18:07.699Z,98963.72
2023-05-23T23:20:34.501Z,98964.41
2023-05-23T23:23:01.719Z,98966.94
2023-05-23T23:25:28.291Z,98959.00
2023-05-23T23:27:54.777Z,98963.41
2023-05-23T23:30:21.430Z,98968.16
2023-05-23T23:32:48.021Z,98966.38
2023-05-23T23:35:14.566Z,98962.59
2023-05-23T23:37:41.260Z,98956.03
2023-05-23T23:40:08.659Z,98950.69
2023-05-23T23:42:35.330Z,98943.88
2023-05-23T23:45:01.960Z,98947.75
2023-05-23T23:47:28.538Z,98946.19
2023-05-23T23:49:55.098Z,98947.34
2023-05-23T23:52:21.590Z,98943.88
2023-05-23T23:54:48.120Z,98949.50
2023-05-23T23:57:14.724Z,98955.59
2023-05-23T23:59:41.743Z,98947.91
